sensor_id;sensor_type;location;lat;lon;timestamp;pressure;altitude;pressure_sealevel;temperature;humidity
10167;BME280;62970;53.130;8.244;2022-09-16T00:01:54;100727.56;;;9.47;66.97
10167;BME280;62970;53.130;8.244;2022-09-16T00:04:23;100725.81;;;9.47;66.92
10167;BME280;62970;53.130;8.244;2022-09-16T00:06:52;100735.31;;;9.48;66.92
10167;BME280;62970;53.130;8.244;2022-09-16T00:09:21;100737.88;;;9.51;67.42
10167;BME280;62970;53.130;8.244;2022-09-16T00:11:50;100736.03;;;9.56;67.59
10167;BME280;62970;53.130;8.244;2022-09-16T00:14:19;100740.22;;;9.64;67.59
10167;BME280;62970;53.130;8.244;2022-09-16T00:16:53;100728.91;;;9.66;67.44
10167;BME280;62970;53.130;8.244;2022-09-16T00:19:22;100734.00;;;9.71;67.48
10167;BME280;62970;53.130;8.244;2022-09-16T00:21:51;100737.41;;;9.74;67.37
10167;BME280;62970;53.130;8.244;2022-09-16T00:24:21;100732.13;;;9.77;67.24
10167;BME280;62970;53.130;8.244;2022-09-16T00:26:50;100725.13;;;9.81;67.64
10167;BME280;62970;53.130;8.244;2022-09-16T00:29:20;100729.34;;;9.86;67.38
10167;BME280;62970;53.130;8.244;2022-09-16T00:31:49;100728.38;;;9.91;67.42
10167;BME280;62970;53.130;8.244;2022-09-16T00:34:24;100734.38;;;9.94;67.17
10167;BME280;62970;53.130;8.244;2022-09-16T00:36:54;100726.56;;;9.94;67.25
10167;BME280;62970;53.130;8.244;2022-09-16T00:39:23;100732.69;;;9.92;67.34
10167;BME280;62970;53.130;8.244;2022-09-16T00:41:52;100734.47;;;9.89;66.77
10167;BME280;62970;53.130;8.244;2022-09-16T00:44:53;100726.78;;;9.83;66.94
10167;BME280;62970;53.130;8.244;2022-09-16T00:47:28;100725.09;;;9.82;67.30
10167;BME280;62970;53.130;8.244;2022-09-16T00:50:05;100721.66;;;9.80;67.31
10167;BME280;62970;53.130;8.244;2022-09-16T00:52:37;100716.41;;;9.82;67.61
10167;BME280;62970;53.130;8.244;2022-09-16T00:55:10;100718.97;;;9.83;67.37
10167;BME280;62970;53.130;8.244;2022-09-16T00:57:42;100713.69;;;9.88;67.95
10167;BME280;62970;53.130;8.244;2022-09-16T01:00:13;100716.19;;;9.93;67.74
10167;BME280;62970;53.130;8.244;2022-09-16T01:02:43;100711.72;;;9.98;67.41
10167;BME280;62970;53.130;8.244;2022-09-16T01:05:20;100721.22;;;10.02;67.72
10167;BME280;62970;53.130;8.244;2022-09-16T01:07:52;100726.28;;;10.08;67.58
10167;BME280;62970;53.130;8.244;2022-09-16T01:10:24;100727.13;;;10.10;67.51
10167;BME280;62970;53.130;8.244;2022-09-16T01:12:57;100725.31;;;10.13;67.61
10167;BME280;62970;53.130;8.244;2022-09-16T01:15:33;100720.03;;;10.18;67.36
10167;BME280;62970;53.130;8.244;2022-09-16T01:18:13;100723.41;;;10.22;67.44
10167;BME280;62970;53.130;8.244;2022-09-16T01:21:27;100729.44;;;10.24;67.06
10167;BME280;62970;53.130;8.244;2022-09-16T01:27:43;100726.81;;;10.25;66.96
10167;BME280;62970;53.130;8.244;2022-09-16T01:30:45;100725.16;;;10.21;67.29
10167;BME280;62970;53.130;8.244;2022-09-16T01:33:27;100721.66;;;10.22;67.28
10167;BME280;62970;53.130;8.244;2022-09-16T01:36:24;100722.56;;;10.21;67.17
10167;BME280;62970;53.130;8.244;2022-09-16T01:39:08;100708.66;;;10.21;67.00
10167;BME280;62970;53.130;8.244;2022-09-16T01:42:11;100714.81;;;10.18;67.24
10167;BME280;62970;53.130;8.244;2022-09-16T01:44:53;100721.78;;;10.16;67.18
10167;BME280;62970;53.130;8.244;2022-09-16T01:47:35;100715.75;;;10.14;67.24
10167;BME280;62970;53.130;8.244;2022-09-16T01:50:13;100723.56;;;10.14;67.24
10167;BME280;62970;53.130;8.244;2022-09-16T01:52:55;100718.34;;;10.14;67.26
10167;BME280;62970;53.130;8.244;2022-09-16T01:55:31;100713.13;;;10.14;67.16
10167;BME280;62970;53.130;8.244;2022-09-16T01:58:07;100704.47;;;10.13;67.40
10167;BME280;62970;53.130;8.244;2022-09-16T02:00:40;100708.00;;;10.11;66.99
10167;BME280;62970;53.130;8.244;2022-09-16T02:03:16;100714.09;;;10.10;67.09
10167;BME280;62970;53.130;8.244;2022-09-16T02:05:51;100719.31;;;10.10;67.49
10167;BME280;62970;53.130;8.244;2022-09-16T02:08:26;100743.56;;;10.12;67.37
10167;BME280;62970;53.130;8.244;2022-09-16T02:10:59;100747.88;;;10.14;67.82
10167;BME280;62970;53.130;8.244;2022-09-16T02:13:34;100732.19;;;10.17;67.39
10167;BME280;62970;53.130;8.244;2022-09-16T02:16:10;100735.63;;;10.19;67.50
10167;BME280;62970;53.130;8.244;2022-09-16T02:18:50;100738.19;;;10.21;67.73
10167;BME280;62970;53.130;8.244;2022-09-16T02:21:23;100727.78;;;10.21;68.06
10167;BME280;62970;53.130;8.244;2022-09-16T02:24:02;100715.59;;;10.22;67.59
10167;BME280;62970;53.130;8.244;2022-09-16T02:26:38;100716.47;;;10.22;67.69
10167;BME280;62970;53.130;8.244;2022-09-16T02:29:14;100712.13;;;10.21;67.96
10167;BME280;62970;53.130;8.244;2022-09-16T02:31:46;100708.72;;;10.19;68.15
10167;BME280;62970;53.130;8.244;2022-09-16T02:34:22;100713.97;;;10.17;68.20
10167;BME280;62970;53.130;8.244;2022-09-16T02:36:57;100712.25;;;10.15;67.98
10167;BME280;62970;53.130;8.244;2022-09-16T02:39:32;100708.78;;;10.14;67.92
10167;BME280;62970;53.130;8.244;2022-09-16T02:42:03;100713.09;;;10.15;68.35
10167;BME280;62970;53.130;8.244;2022-09-16T02:44:33;100711.34;;;10.17;68.16
10167;BME280;62970;53.130;8.244;2022-09-16T02:47:09;100719.16;;;10.17;68.55
10167;BME280;62970;53.130;8.244;2022-09-16T02:49:51;100716.53;;;10.19;68.21
10167;BME280;62970;53.130;8.244;2022-09-16T02:52:28;100718.25;;;10.20;68.55
10167;BME280;62970;53.130;8.244;2022-09-16T02:55:11;100717.34;;;10.21;68.05
10167;BME280;62970;53.130;8.244;2022-09-16T02:57:41;100721.66;;;10.22;68.71
10167;BME280;62970;53.130;8.244;2022-09-16T03:00:12;100726.88;;;10.22;68.21
10167;BME280;62970;53.130;8.244;2022-09-16T03:02:41;100720.78;;;10.23;68.34
10167;BME280;62970;53.130;8.244;2022-09-16T03:05:13;100726.88;;;10.22;68.43
10167;BME280;62970;53.130;8.244;2022-09-16T03:07:42;100721.66;;;10.22;68.61
10167;BME280;62970;53.130;8.244;2022-09-16T03:10:12;100726.00;;;10.23;68.15
10167;BME280;62970;53.130;8.244;2022-09-16T03:12:57;100716.47;;;10.22;68.06
10167;BME280;62970;53.130;8.244;2022-09-16T03:15:50;100717.38;;;10.19;68.36
10167;BME280;62970;53.130;8.244;2022-09-16T03:18:46;100706.09;;;10.19;68.54
10167;BME280;62970;53.130;8.244;2022-09-16T03:21:28;100711.34;;;10.17;68.19
10167;BME280;62970;53.130;8.244;2022-09-16T03:24:07;100703.56;;;10.14;68.13
10167;BME280;62970;53.130;8.244;2022-09-16T03:26:45;100702.81;;;10.09;68.41
10167;BME280;62970;53.130;8.244;2022-09-16T03:29:21;100706.41;;;10.04;67.96
10167;BME280;62970;53.130;8.244;2022-09-16T03:31:58;100697.06;;;9.94;67.85
10167;BME280;62970;53.130;8.244;2022-09-16T03:34:35;100702.44;;;9.86;68.27
10167;BME280;62970;53.130;8.244;2022-09-16T03:37:13;100700.78;;;9.82;68.46
10167;BME280;62970;53.130;8.244;2022-09-16T03:39:48;100701.75;;;9.78;68.30
10167;BME280;62970;53.130;8.244;2022-09-16T03:42:19;100707.88;;;9.75;68.66
10167;BME280;62970;53.130;8.244;2022-09-16T03:44:48;100705.34;;;9.72;68.63
10167;BME280;62970;53.130;8.244;2022-09-16T03:47:18;100705.44;;;9.68;68.58
10167;BME280;62970;53.130;8.244;2022-09-16T03:49:47;100704.63;;;9.64;68.82
10167;BME280;62970;53.130;8.244;2022-09-16T03:52:19;100700.31;;;9.63;68.83
10167;BME280;62970;53.130;8.244;2022-09-16T03:54:48;100709.84;;;9.64;69.19
10167;BME280;62970;53.130;8.244;2022-09-16T03:57:17;100702.91;;;9.65;68.99
10167;BME280;62970;53.130;8.244;2022-09-16T03:59:47;100705.47;;;9.66;69.21
10167;BME280;62970;53.130;8.244;2022-09-16T04:02:16;100705.41;;;9.69;68.79
10167;BME280;62970;53.130;8.244;2022-09-16T04:04:45;100701.16;;;9.65;69.00
10167;BME280;62970;53.130;8.244;2022-09-16T04:07:15;100696.94;;;9.60;68.68
10167;BME280;62970;53.130;8.244;2022-09-16T04:09:47;100704.00;;;9.53;68.42
10167;BME280;62970;53.130;8.244;2022-09-16T04:12:16;100701.56;;;9.45;68.54
10167;BME280;62970;53.130;8.244;2022-09-16T04:14:45;100699.06;;;9.39;68.45
10167;BME280;62970;53.130;8.244;2022-09-16T04:17:15;100698.34;;;9.33;68.77
10167;BME280;62970;53.130;8.244;2022-09-16T04:19:44;100700.22;;;9.24;68.84
10167;BME280;62970;53.130;8.244;2022-09-16T04:22:13;100691.69;;;9.18;68.82
10167;BME280;62970;53.130;8.244;2022-09-16T04:24:42;100693.53;;;9.11;68.73
10167;BME280;62970;53.130;8.244;2022-09-16T04:27:14;100688.47;;;9.05;69.22
10167;BME280;62970;53.130;8.244;2022-09-16T04:29:44;100691.16;;;8.99;68.82
10167;BME280;62970;53.130;8.244;2022-09-16T04:32:13;100692.16;;;8.92;69.34
10167;BME280;62970;53.130;8.244;2022-09-16T04:34:42;100696.59;;;8.87;69.31
10167;BME280;62970;53.130;8.244;2022-09-16T04:37:11;100692.34;;;8.83;69.49
10167;BME280;62970;53.130;8.244;2022-09-16T04:39:40;100697.59;;;8.80;69.21
10167;BME280;62970;53.130;8.244;2022-09-16T04:42:10;100693.28;;;8.76;69.22
10167;BME280;62970;53.130;8.244;2022-09-16T04:44:42;100689.88;;;8.72;69.46
10167;BME280;62970;53.130;8.244;2022-09-16T04:47:11;100687.34;;;8.69;69.31
10167;BME280;62970;53.130;8.244;2022-09-16T04:49:40;100695.19;;;8.66;69.56
10167;BME280;62970;53.130;8.244;2022-09-16T04:52:10;100689.16;;;8.64;69.76
10167;BME280;62970;53.130;8.244;2022-09-16T04:54:39;100688.31;;;8.62;69.84
10167;BME280;62970;53.130;8.244;2022-09-16T04:57:09;100687.50;;;8.60;69.87
10167;BME280;62970;53.130;8.244;2022-09-16T04:59:38;100689.22;;;8.59;69.69
10167;BME280;62970;53.130;8.244;2022-09-16T05:02:10;100695.28;;;8.60;69.61
10167;BME280;62970;53.130;8.244;2022-09-16T05:04:39;100695.28;;;8.60;69.83
10167;BME280;62970;53.130;8.244;2022-09-16T05:07:08;100684.91;;;8.60;70.10
10167;BME280;62970;53.130;8.244;2022-09-16T05:09:37;100670.19;;;8.59;70.07
10167;BME280;62970;53.130;8.244;2022-09-16T05:12:07;100669.34;;;8.57;69.80
10167;BME280;62970;53.130;8.244;2022-09-16T05:14:36;100665.00;;;8.57;69.91
10167;BME280;62970;53.130;8.244;2022-09-16T05:17:05;100671.09;;;8.56;70.08
10167;BME280;62970;53.130;8.244;2022-09-16T05:19:37;100670.22;;;8.56;69.90
10167;BME280;62970;53.130;8.244;2022-09-16T05:22:06;100664.16;;;8.57;69.97
10167;BME280;62970;53.130;8.244;2022-09-16T05:24:36;100661.50;;;8.60;70.13
10167;BME280;62970;53.130;8.244;2022-09-16T05:27:05;100657.09;;;8.64;70.19
10167;BME280;62970;53.130;8.244;2022-09-16T05:29:34;100662.19;;;8.70;70.47
10167;BME280;62970;53.130;8.244;2022-09-16T05:32:04;100663.00;;;8.73;69.90
10167;BME280;62970;53.130;8.244;2022-09-16T05:34:36;100662.09;;;8.76;70.32
10167;BME280;62970;53.130;8.244;2022-09-16T05:37:05;100656.00;;;8.78;70.30
10167;BME280;62970;53.130;8.244;2022-09-16T05:39:34;100649.88;;;8.82;69.87
10167;BME280;62970;53.130;8.244;2022-09-16T05:42:04;100674.03;;;8.89;70.22
10167;BME280;62970;53.130;8.244;2022-09-16T05:44:34;100679.97;;;8.96;70.22
10167;BME280;62970;53.130;8.244;2022-09-16T05:47:03;100673.78;;;9.01;70.02
10167;BME280;62970;53.130;8.244;2022-09-16T05:49:32;100678.06;;;9.05;69.80
10167;BME280;62970;53.130;8.244;2022-09-16T05:52:05;100678.75;;;9.15;69.98
10167;BME280;62970;53.130;8.244;2022-09-16T05:54:34;100686.03;;;9.41;70.76
10167;BME280;62970;53.130;8.244;2022-09-16T05:57:03;100676.50;;;9.81;70.68
10167;BME280;62970;53.130;8.244;2022-09-16T05:59:33;100680.66;;;10.30;70.57
10167;BME280;62970;53.130;8.244;2022-09-16T06:02:03;100684.69;;;10.77;69.61
10167;BME280;62970;53.130;8.244;2022-09-16T06:04:32;100687.69;;;11.27;68.99
10167;BME280;62970;53.130;8.244;2022-09-16T06:07:04;100689.78;;;11.76;68.63
10167;BME280;62970;53.130;8.244;2022-09-16T06:09:33;100685.66;;;12.25;68.21
10167;BME280;62970;53.130;8.244;2022-09-16T06:12:02;100684.13;;;12.74;67.16
10167;BME280;62970;53.130;8.244;2022-09-16T06:14:31;100690.31;;;13.21;66.93
10167;BME280;62970;53.130;8.244;2022-09-16T06:17:00;100679.53;;;13.54;65.60
10167;BME280;62970;53.130;8.244;2022-09-16T06:19:30;100680.00;;;13.88;65.23
10167;BME280;62970;53.130;8.244;2022-09-16T06:21:59;100683.00;;;14.23;64.56
10167;BME280;62970;53.130;8.244;2022-09-16T06:24:30;100666.47;;;14.63;64.48
10167;BME280;62970;53.130;8.244;2022-09-16T06:26:59;100664.66;;;15.06;64.31
10167;BME280;62970;53.130;8.244;2022-09-16T06:29:29;100673.78;;;15.38;62.88
10167;BME280;62970;53.130;8.244;2022-09-16T06:31:58;100665.81;;;15.39;61.87
10167;BME280;62970;53.130;8.244;2022-09-16T06:34:28;100660.56;;;15.19;61.68
10167;BME280;62970;53.130;8.244;2022-09-16T06:36:57;100662.97;;;14.84;61.68
10167;BME280;62970;53.130;8.244;2022-09-16T06:39:26;100660.22;;;14.45;61.69
10167;BME280;62970;53.130;8.244;2022-09-16T06:41:58;100672.25;;;14.07;62.30
10167;BME280;62970;53.130;8.244;2022-09-16T06:44:27;100672.66;;;13.75;62.29
10167;BME280;62970;53.130;8.244;2022-09-16T06:46:56;100665.81;;;13.47;62.91
10167;BME280;62970;53.130;8.244;2022-09-16T06:49:25;100659.59;;;13.26;63.59
10167;BME280;62970;53.130;8.244;2022-09-16T06:51:55;100668.16;;;13.06;63.40
10167;BME280;62970;53.130;8.244;2022-09-16T06:54:25;100661.75;;;12.90;63.75
10167;BME280;62970;53.130;8.244;2022-09-16T06:56:57;100656.09;;;12.78;64.42
10167;BME280;62970;53.130;8.244;2022-09-16T06:59:26;100655.44;;;12.71;64.56
10167;BME280;62970;53.130;8.244;2022-09-16T07:01:55;100665.91;;;12.71;64.84
10167;BME280;62970;53.130;8.244;2022-09-16T07:04:25;100662.06;;;12.81;65.19
10167;BME280;62970;53.130;8.244;2022-09-16T07:06:56;100660.75;;;12.94;65.43
10167;BME280;62970;53.130;8.244;2022-09-16T07:09:26;100660.41;;;13.03;65.15
10167;BME280;62970;53.130;8.244;2022-09-16T07:11:58;100659.56;;;13.03;64.33
10167;BME280;62970;53.130;8.244;2022-09-16T07:14:28;100658.19;;;12.93;64.09
10167;BME280;62970;53.130;8.244;2022-09-16T07:16:58;100658.66;;;12.79;64.16
10167;BME280;62970;53.130;8.244;2022-09-16T07:19:28;100649.53;;;12.66;64.34
10167;BME280;62970;53.130;8.244;2022-09-16T07:21:57;100656.75;;;12.58;64.58
10167;BME280;62970;53.130;8.244;2022-09-16T07:24:27;100651.72;;;12.50;64.54
10167;BME280;62970;53.130;8.244;2022-09-16T07:26:59;100645.81;;;12.45;64.94
10167;BME280;62970;53.130;8.244;2022-09-16T07:29:28;100649.38;;;12.42;64.46
10167;BME280;62970;53.130;8.244;2022-09-16T07:31:57;100641.56;;;12.41;64.62
10167;BME280;62970;53.130;8.244;2022-09-16T07:34:26;100641.63;;;12.39;64.98
10167;BME280;62970;53.130;8.244;2022-09-16T07:36:55;100649.53;;;12.38;64.65
10167;BME280;62970;53.130;8.244;2022-09-16T07:39:25;100643.50;;;12.36;64.21
10167;BME280;62970;53.130;8.244;2022-09-16T07:41:54;100653.19;;;12.32;64.25
10167;BME280;62970;53.130;8.244;2022-09-16T07:44:26;100660.28;;;12.29;64.40
10167;BME280;62970;53.130;8.244;2022-09-16T07:46:55;100656.88;;;12.27;64.36
10167;BME280;62970;53.130;8.244;2022-09-16T07:49:24;100654.28;;;12.25;64.52
10167;BME280;62970;53.130;8.244;2022-09-16T07:51:53;100657.81;;;12.24;64.56
10167;BME280;62970;53.130;8.244;2022-09-16T07:54:23;100660.38;;;12.26;64.71
10167;BME280;62970;53.130;8.244;2022-09-16T07:56:52;100659.44;;;12.28;64.56
10167;BME280;62970;53.130;8.244;2022-09-16T07:59:21;100657.63;;;12.30;64.62
10167;BME280;62970;53.130;8.244;2022-09-16T08:01:53;100650.56;;;12.32;64.26
10167;BME280;62970;53.130;8.244;2022-09-16T08:04:22;100653.09;;;12.35;64.64
10167;BME280;62970;53.130;8.244;2022-09-16T08:06:51;100659.06;;;12.39;64.18
10167;BME280;62970;53.130;8.244;2022-09-16T08:09:20;100658.13;;;12.41;64.48
10167;BME280;62970;53.130;8.244;2022-09-16T08:11:49;100658.88;;;12.45;64.48
10167;BME280;62970;53.130;8.244;2022-09-16T08:14:18;100653.59;;;12.47;64.25
10167;BME280;62970;53.130;8.244;2022-09-16T08:16:48;100652.59;;;12.51;64.04
10167;BME280;62970;53.130;8.244;2022-09-16T08:19:21;100659.53;;;12.52;63.80
10167;BME280;62970;53.130;8.244;2022-09-16T08:21:50;100659.41;;;12.55;64.25
10167;BME280;62970;53.130;8.244;2022-09-16T08:24:20;100655.00;;;12.57;63.83
10167;BME280;62970;53.130;8.244;2022-09-16T08:26:48;100658.44;;;12.60;63.94
10167;BME280;62970;53.130;8.244;2022-09-16T08:29:18;100655.75;;;12.62;63.35
10167;BME280;62970;53.130;8.244;2022-09-16T08:31:50;100656.50;;;12.65;63.66
10167;BME280;62970;53.130;8.244;2022-09-16T08:34:22;100665.22;;;12.66;63.69
10167;BME280;62970;53.130;8.244;2022-09-16T08:36:51;100648.56;;;12.68;63.86
10167;BME280;62970;53.130;8.244;2022-09-16T08:39:20;100661.47;;;12.73;63.40
10167;BME280;62970;53.130;8.244;2022-09-16T08:42:19;100659.66;;;12.75;63.45
10167;BME280;62970;53.130;8.244;2022-09-16T08:45:04;100664.78;;;12.78;63.12
10167;BME280;62970;53.130;8.244;2022-09-16T08:47:44;100651.66;;;12.80;63.21
10167;BME280;62970;53.130;8.244;2022-09-16T08:50:25;100653.25;;;12.84;63.16
10167;BME280;62970;53.130;8.244;2022-09-16T08:52:58;100653.97;;;12.89;62.89
10167;BME280;62970;53.130;8.244;2022-09-16T08:55:31;100660.78;;;12.93;63.02
10167;BME280;62970;53.130;8.244;2022-09-16T08:58:05;100652.84;;;12.96;62.65
10167;BME280;62970;53.130;8.244;2022-09-16T09:00:36;100657.09;;;12.98;62.60
10167;BME280;62970;53.130;8.244;2022-09-16T09:03:16;100657.91;;;13.00;62.31
10167;BME280;62970;53.130;8.244;2022-09-16T09:05:51;100650.84;;;13.02;62.57
10167;BME280;62970;53.130;8.244;2022-09-16T09:08:39;100650.75;;;13.05;62.17
10167;BME280;62970;53.130;8.244;2022-09-16T09:11:19;100655.81;;;13.10;62.21
10167;BME280;62970;53.130;8.244;2022-09-16T09:14:09;100658.09;;;13.19;62.01
10167;BME280;62970;53.130;8.244;2022-09-16T09:16:52;100673.94;;;13.39;61.79
10167;BME280;62970;53.130;8.244;2022-09-16T09:19:39;100668.94;;;13.57;61.83
10167;BME280;62970;53.130;8.244;2022-09-16T09:22:25;100658.94;;;13.68;61.26
10167;BME280;62970;53.130;8.244;2022-09-16T09:25:19;100662.91;;;13.78;61.16
10167;BME280;62970;53.130;8.244;2022-09-16T09:28:00;100654.44;;;13.93;61.40
10167;BME280;62970;53.130;8.244;2022-09-16T09:30:36;100659.09;;;14.09;60.68
10167;BME280;62970;53.130;8.244;2022-09-16T09:33:19;100656.75;;;14.23;60.23
10167;BME280;62970;53.130;8.244;2022-09-16T09:36:15;100649.19;;;14.37;60.12
10167;BME280;62970;53.130;8.244;2022-09-16T09:39:04;100645.88;;;14.54;60.21
10167;BME280;62970;53.130;8.244;2022-09-16T09:41:42;100644.34;;;14.70;59.88
10167;BME280;62970;53.130;8.244;2022-09-16T09:44:35;100644.66;;;14.83;59.86
10167;BME280;62970;53.130;8.244;2022-09-16T09:47:12;100635.66;;;14.88;59.10
10167;BME280;62970;53.130;8.244;2022-09-16T09:49:46;100635.53;;;14.91;58.60
10167;BME280;62970;53.130;8.244;2022-09-16T09:52:26;100639.06;;;14.90;58.60
10167;BME280;62970;53.130;8.244;2022-09-16T09:55:13;100621.50;;;14.92;58.85
10167;BME280;62970;53.130;8.244;2022-09-16T09:58:02;100621.28;;;14.97;58.57
10167;BME280;62970;53.130;8.244;2022-09-16T10:00:33;100625.00;;;15.12;58.01
10167;BME280;62970;53.130;8.244;2022-09-16T10:03:09;100620.22;;;15.21;57.74
10167;BME280;62970;53.130;8.244;2022-09-16T10:05:40;100612.56;;;15.36;57.48
10167;BME280;62970;53.130;8.244;2022-09-16T10:08:17;100635.66;;;15.48;57.16
10167;BME280;62970;53.130;8.244;2022-09-16T10:10:55;100629.53;;;15.47;57.55
10167;BME280;62970;53.130;8.244;2022-09-16T10:13:27;100640.75;;;15.32;57.17
10167;BME280;62970;53.130;8.244;2022-09-16T10:16:13;100632.16;;;15.08;58.21
10167;BME280;62970;53.130;8.244;2022-09-16T10:18:43;100640.00;;;14.89;59.06
10167;BME280;62970;53.130;8.244;2022-09-16T10:21:15;100648.72;;;14.70;59.28
10167;BME280;62970;53.130;8.244;2022-09-16T10:23:53;100645.28;;;14.47;59.09
10167;BME280;62970;53.130;8.244;2022-09-16T10:26:27;100647.72;;;14.30;60.10
10167;BME280;62970;53.130;8.244;2022-09-16T10:29:01;100645.59;;;14.18;59.74
10167;BME280;62970;53.130;8.244;2022-09-16T10:31:36;100648.66;;;14.07;59.59
10167;BME280;62970;53.130;8.244;2022-09-16T10:34:16;100640.50;;;13.93;60.04
10167;BME280;62970;53.130;8.244;2022-09-16T10:36:59;100632.31;;;13.79;60.18
10167;BME280;62970;53.130;8.244;2022-09-16T10:39:29;100637.06;;;13.69;59.72
10167;BME280;62970;53.130;8.244;2022-09-16T10:42:02;100629.59;;;13.58;59.44
10167;BME280;62970;53.130;8.244;2022-09-16T10:44:33;100621.09;;;13.52;59.63
10167;BME280;62970;53.130;8.244;2022-09-16T10:47:13;100621.34;;;13.46;60.19
10167;BME280;62970;53.130;8.244;2022-09-16T10:49:46;100615.38;;;13.42;59.43
10167;BME280;62970;53.130;8.244;2022-09-16T10:52:19;100619.81;;;13.40;58.97
10167;BME280;62970;53.130;8.244;2022-09-16T10:54:50;100617.19;;;13.40;59.44
10167;BME280;62970;53.130;8.244;2022-09-16T10:57:26;100614.44;;;13.43;58.98
10167;BME280;62970;53.130;8.244;2022-09-16T11:00:00;100610.81;;;13.47;58.94
10167;BME280;62970;53.130;8.244;2022-09-16T11:06:03;100618.97;;;13.85;59.09
10167;BME280;62970;53.130;8.244;2022-09-16T11:08:48;100606.53;;;14.12;58.93
10167;BME280;62970;53.130;8.244;2022-09-16T11:11:38;100635.28;;;14.35;58.77
10167;BME280;62970;53.130;8.244;2022-09-16T11:14:26;100643.81;;;14.40;59.39
10167;BME280;62970;53.130;8.244;2022-09-16T11:17:12;100634.22;;;14.19;59.60
10167;BME280;62970;53.130;8.244;2022-09-16T11:20:03;100629.41;;;13.86;60.12
10167;BME280;62970;53.130;8.244;2022-09-16T11:22:39;100613.06;;;13.56;60.79
10167;BME280;62970;53.130;8.244;2022-09-16T11:25:32;100618.38;;;13.31;61.38
10167;BME280;62970;53.130;8.244;2022-09-16T11:28:36;100612.81;;;13.17;62.20
10167;BME280;62970;53.130;8.244;2022-09-16T11:31:19;100606.88;;;13.12;63.18
10167;BME280;62970;53.130;8.244;2022-09-16T11:33:58;100604.25;;;13.12;63.64
10167;BME280;62970;53.130;8.244;2022-09-16T11:36:54;100605.84;;;13.16;63.53
10167;BME280;62970;53.130;8.244;2022-09-16T11:39:58;100613.53;;;13.21;63.48
10167;BME280;62970;53.130;8.244;2022-09-16T11:42:33;100612.41;;;13.28;64.21
10167;BME280;62970;53.130;8.244;2022-09-16T11:45:22;100617.88;;;13.45;64.21
10167;BME280;62970;53.130;8.244;2022-09-16T11:48:23;100603.84;;;13.69;63.54
10167;BME280;62970;53.130;8.244;2022-09-16T11:51:03;100592.47;;;13.92;63.94
10167;BME280;62970;53.130;8.244;2022-09-16T11:53:54;100603.66;;;14.18;63.09
10167;BME280;62970;53.130;8.244;2022-09-16T11:56:35;100598.63;;;14.33;62.45
10167;BME280;62970;53.130;8.244;2022-09-16T11:59:17;100595.09;;;14.34;62.24
10167;BME280;62970;53.130;8.244;2022-09-16T12:01:52;100595.66;;;14.21;62.86
10167;BME280;62970;53.130;8.244;2022-09-16T12:04:31;100586.31;;;13.93;64.13
10167;BME280;62970;53.130;8.244;2022-09-16T12:07:11;100585.41;;;13.73;64.62
10167;BME280;62970;53.130;8.244;2022-09-16T12:09:47;100578.69;;;13.65;66.01
10167;BME280;62970;53.130;8.244;2022-09-16T12:12:20;100576.88;;;13.67;66.68
10167;BME280;62970;53.130;8.244;2022-09-16T12:14:55;100581.06;;;13.71;66.76
10167;BME280;62970;53.130;8.244;2022-09-16T12:17:31;100579.06;;;13.78;66.41
10167;BME280;62970;53.130;8.244;2022-09-16T12:20:13;100575.34;;;13.84;65.62
10167;BME280;62970;53.130;8.244;2022-09-16T12:22:47;100546.31;;;13.88;64.93
10167;BME280;62970;53.130;8.244;2022-09-16T12:25:24;100572.34;;;13.93;63.82
10167;BME280;62970;53.130;8.244;2022-09-16T12:28:00;100559.78;;;14.01;63.39
10167;BME280;62970;53.130;8.244;2022-09-16T12:30:36;100552.38;;;14.11;63.04
10167;BME280;62970;53.130;8.244;2022-09-16T12:33:13;100558.75;;;14.25;61.99
10167;BME280;62970;53.130;8.244;2022-09-16T12:35:55;100552.00;;;14.40;61.77
10167;BME280;62970;53.130;8.244;2022-09-16T12:38:25;100550.31;;;14.59;61.50
10167;BME280;62970;53.130;8.244;2022-09-16T12:41:11;100557.34;;;14.79;61.39
10167;BME280;62970;53.130;8.244;2022-09-16T12:44:17;100544.94;;;15.02;60.96
10167;BME280;62970;53.130;8.244;2022-09-16T12:47:06;100542.06;;;15.26;60.52
10167;BME280;62970;53.130;8.244;2022-09-16T12:50:05;100538.38;;;15.49;59.58
10167;BME280;62970;53.130;8.244;2022-09-16T12:56:08;100534.13;;;15.66;58.17
10167;BME280;62970;53.130;8.244;2022-09-16T13:01:52;100565.91;;;15.59;57.21
10167;BME280;62970;53.130;8.244;2022-09-16T13:04:30;100558.03;;;15.41;57.33
10167;BME280;62970;53.130;8.244;2022-09-16T13:07:00;100553.13;;;15.14;58.61
10167;BME280;62970;53.130;8.244;2022-09-16T13:09:36;100542.75;;;14.92;58.83
10167;BME280;62970;53.130;8.244;2022-09-16T13:12:19;100546.13;;;14.76;59.41
10167;BME280;62970;53.130;8.244;2022-09-16T13:14:54;100541.13;;;14.70;59.37
10167;BME280;62970;53.130;8.244;2022-09-16T13:17:29;100545.53;;;14.69;59.29
10167;BME280;62970;53.130;8.244;2022-09-16T13:20:04;100542.91;;;14.69;59.51
10167;BME280;62970;53.130;8.244;2022-09-16T13:22:43;100530.66;;;14.70;58.91
10167;BME280;62970;53.130;8.244;2022-09-16T13:25:25;100538.69;;;14.65;58.15
10167;BME280;62970;53.130;8.244;2022-09-16T13:27:57;100543.22;;;14.61;57.46
10167;BME280;62970;53.130;8.244;2022-09-16T13:30:37;100543.47;;;14.55;57.39
10167;BME280;62970;53.130;8.244;2022-09-16T13:33:24;100543.69;;;14.51;57.66
10167;BME280;62970;53.130;8.244;2022-09-16T13:36:28;100544.59;;;14.50;58.04
10167;BME280;62970;53.130;8.244;2022-09-16T13:39:00;100553.19;;;14.53;57.95
10167;BME280;62970;53.130;8.244;2022-09-16T13:41:42;100545.31;;;14.53;57.86
10167;BME280;62970;53.130;8.244;2022-09-16T13:44:38;100550.63;;;14.52;57.17
10167;BME280;62970;53.130;8.244;2022-09-16T13:47:17;100552.53;;;14.48;57.55
10167;BME280;62970;53.130;8.244;2022-09-16T13:49:59;100556.09;;;14.47;57.34